createdAt,value
2019-05-07T00:02:10.820Z,6.50
2019-05-07T00:04:42.794Z,6.50
2019-05-07T00:07:13.084Z,6.50
2019-05-07T00:09:43.360Z,6.40
2019-05-07T00:12:13.359Z,6.40
2019-05-07T00:14:57.926Z,6.40
2019-05-07T00:17:15.256Z,6.40
2019-05-07T00:19:45.351Z,6.50
2019-05-07T00:22:15.401Z,6.40
2019-05-07T00:24:45.369Z,6.30
2019-05-07T00:27:15.477Z,6.10
2019-05-07T00:29:45.515Z,6.30
2019-05-07T00:32:15.621Z,6.10
2019-05-07T00:34:49.658Z,6.20
2019-05-07T00:37:28.877Z,6.20
2019-05-07T00:40:17.995Z,6.40
2019-05-07T00:43:05.812Z,6.30
2019-05-07T00:45:45.738Z,6.30
2019-05-07T00:48:15.926Z,6.20
2019-05-07T00:50:47.807Z,6.20
2019-05-07T00:53:18.054Z,6.20
2019-05-07T00:55:48.060Z,6.00
2019-05-07T00:58:18.254Z,6.10
2019-05-07T01:00:48.385Z,6.10
2019-05-07T01:03:18.461Z,6.10
2019-05-07T01:05:48.504Z,6.10
2019-05-07T01:08:18.581Z,6.00
2019-05-07T01:10:48.642Z,6.00
2019-05-07T01:13:18.658Z,6.00
2019-05-07T01:15:48.685Z,5.90
2019-05-07T01:18:18.688Z,6.00
2019-05-07T01:20:48.723Z,5.80
2019-05-07T01:23:18.734Z,5.80
2019-05-07T01:25:48.829Z,5.90
2019-05-07T01:28:19.050Z,5.70
2019-05-07T01:30:49.149Z,5.70
2019-05-07T01:33:34.020Z,5.80
2019-05-07T01:36:08.581Z,5.70
2019-05-07T01:38:38.514Z,5.60
2019-05-07T01:41:08.727Z,5.70
2019-05-07T01:43:38.730Z,5.70
2019-05-07T01:46:08.849Z,5.50
2019-05-07T01:48:38.899Z,5.60
2019-05-07T01:51:09.074Z,5.60
2019-05-07T01:53:39.088Z,5.50
2019-05-07T01:56:09.174Z,5.60
2019-05-07T01:58:39.176Z,5.60
2019-05-07T02:01:09.578Z,5.70
2019-05-07T02:04:12.658Z,5.60
2019-05-07T02:07:02.670Z,5.50
2019-05-07T02:09:48.361Z,5.50
2019-05-07T02:12:37.509Z,5.60
2019-05-07T02:15:11.838Z,5.60
2019-05-07T02:17:43.027Z,5.60
2019-05-07T02:20:13.434Z,5.50
2019-05-07T02:22:43.604Z,5.40
2019-05-07T02:25:14.028Z,5.40
2019-05-07T02:27:44.055Z,5.30
2019-05-07T02:30:15.156Z,5.30
2019-05-07T02:32:45.280Z,5.30
2019-05-07T02:35:15.444Z,5.20
2019-05-07T02:37:56.742Z,5.20
2019-05-07T02:40:34.338Z,5.20
2019-05-07T02:43:04.610Z,5.10
2019-05-07T02:45:56.703Z,5.20
2019-05-07T02:48:33.260Z,5.20
2019-05-07T02:51:14.924Z,5.10
2019-05-07T02:54:06.448Z,5.10
2019-05-07T02:56:36.574Z,5.00
2019-05-07T02:59:06.782Z,5.00
2019-05-07T03:01:37.065Z,5.00
2019-05-07T03:04:07.233Z,5.00
2019-05-07T03:06:37.441Z,5.10
2019-05-07T03:09:08.021Z,5.20
2019-05-07T03:11:38.217Z,5.10
2019-05-07T03:14:08.623Z,5.00
2019-05-07T03:16:44.165Z,4.90
2019-05-07T03:19:13.426Z,4.90
2019-05-07T03:21:55.389Z,4.90
2019-05-07T03:24:34.328Z,5.00
2019-05-07T03:27:05.007Z,4.90
2019-05-07T03:29:36.502Z,4.90
2019-05-07T03:32:38.389Z,4.90
2019-05-07T03:35:28.866Z,4.80
2019-05-07T03:37:59.139Z,4.80
2019-05-07T03:40:32.869Z,4.80
2019-05-07T03:43:05.791Z,4.80
2019-05-07T03:45:49.470Z,4.80
2019-05-07T03:48:23.753Z,4.70
2019-05-07T03:50:53.630Z,4.70
2019-05-07T03:53:23.708Z,4.80
2019-05-07T03:55:54.267Z,4.80
2019-05-07T03:58:24.512Z,4.80
2019-05-07T04:00:54.694Z,4.80
2019-05-07T04:03:25.070Z,4.90
2019-05-07T04:05:55.235Z,5.00
2019-05-07T04:08:25.323Z,5.00
2019-05-07T04:10:55.495Z,5.00
2019-05-07T04:13:25.572Z,5.00
2019-05-07T04:15:55.525Z,5.00
2019-05-07T04:18:25.595Z,5.00
2019-05-07T04:20:55.628Z,5.00
2019-05-07T04:23:25.698Z,5.10
2019-05-07T04:26:13.405Z,5.20
2019-05-07T04:28:54.141Z,5.20
2019-05-07T04:31:25.689Z,5.20
2019-05-07T04:33:57.403Z,5.20
2019-05-07T04:36:29.533Z,5.20
2019-05-07T04:39:02.672Z,5.30
2019-05-07T04:41:32.975Z,5.30
2019-05-07T04:44:03.750Z,5.30
2019-05-07T04:46:34.109Z,5.30
2019-05-07T04:49:04.361Z,5.30
2019-05-07T04:51:43.953Z,5.30
2019-05-07T04:54:13.937Z,5.20
2019-05-07T04:56:44.073Z,5.30
2019-05-07T04:59:14.082Z,5.40
2019-05-07T05:01:53.067Z,5.80
2019-05-07T05:04:30.235Z,5.70
2019-05-07T05:06:54.314Z,5.80
2019-05-07T05:09:24.622Z,6.00
2019-05-07T05:11:54.602Z,6.10
2019-05-07T05:14:24.619Z,6.30
2019-05-07T05:16:54.659Z,6.20
2019-05-07T05:19:24.822Z,6.50
2019-05-07T05:22:12.689Z,6.70
2019-05-07T05:24:45.211Z,7.00
2019-05-07T05:27:15.209Z,7.00
2019-05-07T05:29:45.329Z,7.30
2019-05-07T05:32:15.316Z,7.40
2019-05-07T05:34:45.277Z,7.30
2019-05-07T05:37:15.352Z,7.30
2019-05-07T05:39:45.511Z,7.40
2019-05-07T05:42:33.043Z,7.50
2019-05-07T05:45:03.237Z,7.60
2019-05-07T05:47:33.403Z,7.80
2019-05-07T05:50:04.924Z,7.90
2019-05-07T05:52:45.620Z,7.90
2019-05-07T05:55:18.278Z,7.80
2019-05-07T05:58:04.841Z,7.90
2019-05-07T06:01:06.798Z,8.10
2019-05-07T06:03:48.189Z,8.40
2019-05-07T06:06:32.760Z,8.30
2019-05-07T06:09:15.653Z,8.70
2019-05-07T06:12:16.495Z,8.80
2019-05-07T06:15:12.679Z,8.90
2019-05-07T06:18:02.754Z,8.60
2019-05-07T06:20:42.937Z,8.60
2019-05-07T06:23:33.049Z,9.10
2019-05-07T06:26:05.156Z,8.90
2019-05-07T06:28:35.100Z,8.50
2019-05-07T06:31:05.291Z,8.90
2019-05-07T06:33:35.533Z,9.20
2019-05-07T06:36:05.779Z,9.40
2019-05-07T06:38:42.680Z,9.70
2019-05-07T06:41:22.698Z,9.80
2019-05-07T06:43:56.915Z,9.70
2019-05-07T06:46:27.117Z,10.00
2019-05-07T06:48:57.305Z,10.20
2019-05-07T06:51:27.338Z,10.50
2019-05-07T06:53:57.341Z,10.50
2019-05-07T06:56:27.468Z,10.80
2019-05-07T06:59:04.338Z,10.80
2019-05-07T07:01:54.887Z,10.60
2019-05-07T07:04:36.284Z,10.40
2019-05-07T07:07:37.293Z,10.40
2019-05-07T07:10:26.416Z,10.40
2019-05-07T07:12:56.534Z,10.70
2019-05-07T07:15:26.715Z,10.80
2019-05-07T07:17:56.915Z,10.80
2019-05-07T07:20:27.074Z,10.70
2019-05-07T07:22:57.263Z,10.10
2019-05-07T07:25:27.301Z,10.40
2019-05-07T07:27:57.587Z,10.30
2019-05-07T07:30:42.066Z,10.30
2019-05-07T07:33:13.020Z,10.80
2019-05-07T07:35:42.987Z,11.10
2019-05-07T07:38:32.896Z,11.20
2019-05-07T07:41:13.282Z,11.20
2019-05-07T07:43:43.553Z,11.40
2019-05-07T07:46:16.398Z,11.60
2019-05-07T07:48:45.671Z,11.80
2019-05-07T07:51:16.028Z,12.10
2019-05-07T07:53:46.371Z,11.90
2019-05-07T07:56:49.165Z,12.10
2019-05-07T07:59:29.073Z,12.00
2019-05-07T08:02:18.087Z,11.80
2019-05-07T08:04:48.189Z,11.40
2019-05-07T08:07:18.274Z,10.90
2019-05-07T08:09:48.461Z,10.80
2019-05-07T08:12:18.701Z,10.70
2019-05-07T08:14:48.871Z,10.50
2019-05-07T08:17:19.108Z,10.50
2019-05-07T08:19:49.240Z,10.40
2019-05-07T08:22:19.453Z,10.20
2019-05-07T08:24:51.746Z,10.00
2019-05-07T08:27:22.194Z,10.10
2019-05-07T08:29:53.188Z,10.30
2019-05-07T08:32:42.699Z,10.20
2019-05-07T08:35:38.205Z,10.20
2019-05-07T08:38:08.611Z,10.20
2019-05-07T08:40:38.770Z,10.30
2019-05-07T08:43:08.871Z,10.60
2019-05-07T08:46:02.676Z,10.70
2019-05-07T08:48:37.685Z,10.50
2019-05-07T08:51:07.799Z,10.60
2019-05-07T08:53:37.816Z,10.50
2019-05-07T08:56:07.939Z,10.70
2019-05-07T08:58:38.124Z,10.70
2019-05-07T09:01:08.300Z,10.80
2019-05-07T09:03:44.262Z,10.80
2019-05-07T09:06:17.376Z,10.90
2019-05-07T09:08:47.535Z,11.10
2019-05-07T09:11:17.775Z,11.20
2019-05-07T09:13:47.690Z,11.00
2019-05-07T09:16:17.805Z,11.10
2019-05-07T09:18:47.902Z,11.30
2019-05-07T09:21:18.112Z,11.80
2019-05-07T09:23:48.338Z,11.90
2019-05-07T09:26:22.130Z,11.70
2019-05-07T09:29:17.248Z,11.80
2019-05-07T09:32:06.415Z,12.20
2019-05-07T09:34:41.658Z,12.50
2019-05-07T09:37:13.765Z,12.60
2019-05-07T09:39:44.084Z,12.60
2019-05-07T09:42:14.301Z,12.40
2019-05-07T09:44:44.371Z,12.10
2019-05-07T09:47:14.577Z,12.00
2019-05-07T09:49:44.688Z,11.80
2019-05-07T09:52:14.880Z,11.60
2019-05-07T09:54:44.993Z,11.70
2019-05-07T09:57:27.288Z,12.10
2019-05-07T09:59:47.262Z,12.40
2019-05-07T10:02:17.558Z,12.20
2019-05-07T10:04:47.724Z,12.00
2019-05-07T10:07:18.162Z,11.90
2019-05-07T10:09:48.293Z,11.80
2019-05-07T10:12:37.755Z,11.90
2019-05-07T10:15:08.329Z,11.90
2019-05-07T10:17:49.740Z,11.90
2019-05-07T10:20:22.774Z,12.10
2019-05-07T10:22:53.366Z,12.30
2019-05-07T10:25:26.568Z,12.40
2019-05-07T10:27:56.742Z,13.00
2019-05-07T10:30:26.989Z,13.10
2019-05-07T10:32:57.299Z,13.30
2019-05-07T10:35:27.431Z,13.40
2019-05-07T10:37:57.759Z,13.70
2019-05-07T10:40:28.400Z,13.70
2019-05-07T10:42:58.725Z,13.30
2019-05-07T10:45:54.053Z,13.00
2019-05-07T10:48:47.516Z,13.20
2019-05-07T10:51:17.743Z,13.20
2019-05-07T10:53:48.040Z,13.90
2019-05-07T10:56:18.355Z,14.30
2019-05-07T10:58:48.580Z,13.80
2019-05-07T11:01:22.511Z,13.50
2019-05-07T11:03:52.509Z,12.70
2019-05-07T11:06:22.628Z,12.60
2019-05-07T11:08:52.640Z,12.70
2019-05-07T11:11:22.904Z,13.50
2019-05-07T11:13:55.885Z,14.70
2019-05-07T11:16:27.646Z,15.90
2019-05-07T11:18:57.834Z,16.00
2019-05-07T11:21:33.272Z,14.70
2019-05-07T11:24:03.397Z,14.80
2019-05-07T11:26:33.892Z,15.30
2019-05-07T11:29:04.035Z,15.80
2019-05-07T11:31:34.177Z,15.80
2019-05-07T11:34:04.468Z,14.90
2019-05-07T11:36:34.625Z,15.20
2019-05-07T11:39:06.347Z,15.80
2019-05-07T11:41:53.735Z,16.50
2019-05-07T11:44:26.938Z,17.30
2019-05-07T11:47:22.450Z,17.00
2019-05-07T11:50:11.960Z,17.30
2019-05-07T11:52:45.557Z,16.40
2019-05-07T11:55:15.716Z,15.30
2019-05-07T11:57:45.704Z,14.60
2019-05-07T12:00:26.778Z,14.60
2019-05-07T12:02:56.930Z,15.20
2019-05-07T12:05:26.979Z,15.70
2019-05-07T12:07:57.087Z,16.30
2019-05-07T12:10:27.195Z,17.30
2019-05-07T12:12:57.302Z,18.20
2019-05-07T12:15:27.425Z,18.70
2019-05-07T12:17:57.681Z,19.00
2019-05-07T12:20:27.953Z,20.10
2019-05-07T12:22:58.057Z,20.00
2019-05-07T12:25:28.162Z,19.90
2019-05-07T12:27:58.262Z,19.20
2019-05-07T12:30:39.427Z,18.50
2019-05-07T12:33:22.697Z,17.60
2019-05-07T12:35:52.739Z,16.10
2019-05-07T12:38:22.860Z,15.60
2019-05-07T12:40:52.983Z,15.70
2019-05-07T12:43:23.101Z,15.50
2019-05-07T12:45:53.339Z,16.10
2019-05-07T12:48:23.425Z,17.20
2019-05-07T12:50:53.513Z,18.20
2019-05-07T12:53:46.639Z,19.30
2019-05-07T12:56:16.707Z,19.70
2019-05-07T12:58:46.911Z,19.80
2019-05-07T13:01:27.559Z,20.20
2019-05-07T13:04:02.694Z,20.10
2019-05-07T13:06:35.335Z,19.50
2019-05-07T13:09:07.445Z,18.70
2019-05-07T13:11:37.638Z,18.60
2019-05-07T13:14:07.827Z,17.40
2019-05-07T13:16:37.888Z,16.00
2019-05-07T13:19:07.949Z,15.30
2019-05-07T13:21:49.062Z,15.00
2019-05-07T13:24:11.756Z,15.00
2019-05-07T13:26:42.757Z,15.40
2019-05-07T13:29:13.013Z,15.50
2019-05-07T13:31:43.735Z,15.60
2019-05-07T13:34:14.759Z,15.90
2019-05-07T13:36:48.536Z,15.70
2019-05-07T13:39:24.252Z,15.50
2019-05-07T13:42:03.204Z,15.00
2019-05-07T13:44:56.612Z,15.10
2019-05-07T13:47:28.896Z,15.00
2019-05-07T13:49:59.609Z,15.20
2019-05-07T13:52:29.956Z,15.00
2019-05-07T13:55:00.535Z,14.90
2019-05-07T13:57:32.267Z,15.00
2019-05-07T14:00:05.061Z,15.10
2019-05-07T14:02:35.231Z,14.90
2019-05-07T14:05:05.998Z,14.70
2019-05-07T14:07:37.861Z,14.50
2019-05-07T14:10:08.371Z,14.50
2019-05-07T14:12:38.523Z,14.80
2019-05-07T14:15:09.258Z,15.30
2019-05-07T14:17:39.956Z,15.20
2019-05-07T14:20:12.762Z,15.20
2019-05-07T14:22:42.645Z,14.90
2019-05-07T14:25:14.467Z,14.40
2019-05-07T14:27:44.640Z,14.20
2019-05-07T14:30:15.823Z,14.30
2019-05-07T14:32:56.969Z,14.30
2019-05-07T14:35:39.853Z,14.60
2019-05-07T14:38:23.854Z,15.00
2019-05-07T14:40:54.092Z,15.20
2019-05-07T14:43:32.461Z,15.20
2019-05-07T14:46:03.647Z,15.20
2019-05-07T14:48:36.206Z,15.20
2019-05-07T14:51:06.020Z,14.90
2019-05-07T14:53:36.270Z,15.00
2019-05-07T14:56:06.882Z,15.00
2019-05-07T14:58:37.076Z,14.80
2019-05-07T15:01:07.261Z,14.80
2019-05-07T15:03:37.436Z,14.80
2019-05-07T15:06:07.634Z,14.90
2019-05-07T15:08:37.833Z,15.10
2019-05-07T15:11:08.205Z,15.10
2019-05-07T15:13:38.369Z,14.90
2019-05-07T15:16:08.472Z,14.90
2019-05-07T15:18:55.282Z,15.00
2019-05-07T15:21:25.552Z,15.20
2019-05-07T15:23:57.107Z,15.40
2019-05-07T15:26:27.282Z,15.60
2019-05-07T15:29:03.501Z,15.90
2019-05-07T15:31:51.943Z,15.90
2019-05-07T15:34:22.241Z,15.90
2019-05-07T15:36:52.810Z,15.90
2019-05-07T15:39:22.983Z,16.40
2019-05-07T15:41:53.174Z,16.90
2019-05-07T15:44:23.429Z,16.50
2019-05-07T15:46:55.359Z,16.20
2019-05-07T15:49:25.393Z,16.30
2019-05-07T15:51:57.304Z,16.10
2019-05-07T15:54:27.421Z,16.20
2019-05-07T15:57:01.805Z,16.30
2019-05-07T15:59:31.654Z,16.00
2019-05-07T16:02:12.260Z,16.10
2019-05-07T16:04:41.916Z,16.00
2019-05-07T16:07:13.263Z,15.50
2019-05-07T16:09:43.952Z,15.50
2019-05-07T16:12:15.749Z,15.60
2019-05-07T16:14:45.775Z,15.60
2019-05-07T16:17:37.392Z,16.00
2019-05-07T16:20:08.151Z,16.10
2019-05-07T16:22:42.424Z,16.20
2019-05-07T16:25:12.618Z,16.20
2019-05-07T16:27:42.639Z,16.10
2019-05-07T16:30:14.629Z,15.90
2019-05-07T16:32:44.749Z,16.00
2019-05-07T16:35:16.319Z,15.70
2019-05-07T16:37:46.594Z,15.70
2019-05-07T16:40:18.158Z,15.80
2019-05-07T16:42:48.485Z,15.80
2019-05-07T16:45:19.242Z,15.50
2019-05-07T16:47:49.475Z,15.50
2019-05-07T16:50:22.176Z,15.50
2019-05-07T16:52:52.545Z,15.30
2019-05-07T16:55:25.629Z,15.20
2019-05-07T16:58:06.980Z,15.10
2019-05-07T17:00:49.231Z,15.10
2019-05-07T17:03:26.124Z,15.40
2019-05-07T17:05:56.225Z,15.40
2019-05-07T17:08:32.029Z,15.20
2019-05-07T17:11:03.048Z,14.80
2019-05-07T17:13:33.395Z,14.90
2019-05-07T17:16:03.691Z,14.70
2019-05-07T17:18:33.903Z,14.50
2019-05-07T17:21:04.007Z,14.40
2019-05-07T17:23:44.046Z,13.90
2019-05-07T17:26:06.094Z,13.60
2019-05-07T17:28:36.763Z,13.50
2019-05-07T17:31:06.984Z,13.40
2019-05-07T17:33:37.215Z,13.30
2019-05-07T17:36:07.337Z,13.10
2019-05-07T17:38:37.502Z,13.00
2019-05-07T17:41:13.526Z,12.90
2019-05-07T17:43:39.497Z,12.80
2019-05-07T17:46:09.652Z,12.80
2019-05-07T17:48:39.692Z,12.60
2019-05-07T17:51:28.686Z,12.50
2019-05-07T17:54:00.266Z,12.40
2019-05-07T17:56:32.077Z,12.60
2019-05-07T17:59:02.970Z,12.40
2019-05-07T18:02:02.263Z,12.40
2019-05-07T18:04:47.683Z,12.30
2019-05-07T18:07:06.253Z,12.40
2019-05-07T18:09:36.528Z,12.10
2019-05-07T18:12:06.731Z,12.40
2019-05-07T18:14:36.696Z,12.40
2019-05-07T18:17:28.493Z,12.30
2019-05-07T18:19:58.591Z,12.10
2019-05-07T18:22:28.816Z,12.00
2019-05-07T18:24:58.910Z,11.90
2019-05-07T18:27:28.889Z,11.80
2019-05-07T18:29:58.844Z,11.80
2019-05-07T18:32:35.444Z,11.80
2019-05-07T18:35:06.648Z,11.60
2019-05-07T18:37:39.333Z,11.60
2019-05-07T18:40:09.708Z,11.50
2019-05-07T18:42:41.748Z,11.40
2019-05-07T18:45:12.592Z,11.40
2019-05-07T18:47:43.452Z,11.40
2019-05-07T18:50:13.752Z,11.40
2019-05-07T18:52:43.960Z,11.30
2019-05-07T18:55:14.346Z,11.30
2019-05-07T18:57:44.480Z,11.20
2019-05-07T19:00:25.388Z,11.40
2019-05-07T19:02:55.606Z,11.30
2019-05-07T19:05:25.610Z,11.40
2019-05-07T19:08:07.109Z,11.20
2019-05-07T19:10:27.951Z,11.10
2019-05-07T19:12:58.924Z,11.00
2019-05-07T19:15:29.126Z,10.90
2019-05-07T19:17:59.352Z,11.00
2019-05-07T19:20:29.618Z,10.80
2019-05-07T19:22:59.674Z,10.80
2019-05-07T19:25:29.980Z,10.80
2019-05-07T19:28:01.983Z,10.70
2019-05-07T19:30:32.748Z,10.70
2019-05-07T19:33:02.955Z,10.50
2019-05-07T19:35:33.108Z,10.40
2019-05-07T19:38:03.289Z,10.50
2019-05-07T19:40:33.552Z,10.40
2019-05-07T19:43:03.742Z,10.30
2019-05-07T19:45:33.865Z,10.40
2019-05-07T19:48:03.987Z,10.40
2019-05-07T19:50:34.164Z,10.40
2019-05-07T19:53:04.352Z,10.30
2019-05-07T19:55:53.722Z,10.20
2019-05-07T19:58:23.838Z,10.10
2019-05-07T20:00:57.313Z,10.20
2019-05-07T20:03:26.868Z,10.30
2019-05-07T20:05:57.163Z,10.20
2019-05-07T20:08:27.256Z,10.10
2019-05-07T20:11:05.577Z,10.20
2019-05-07T20:13:35.597Z,10.30
2019-05-07T20:16:12.248Z,10.30
2019-05-07T20:18:42.916Z,10.10
2019-05-07T20:21:13.019Z,10.10
2019-05-07T20:23:43.409Z,10.10
2019-05-07T20:26:13.622Z,10.00
2019-05-07T20:28:43.704Z,9.90
2019-05-07T20:31:13.897Z,10.10
2019-05-07T20:33:43.950Z,11.20
2019-05-07T20:36:14.293Z,12.00
2019-05-07T20:38:44.315Z,12.10
2019-05-07T20:41:16.560Z,12.10
2019-05-07T20:43:46.485Z,11.70
2019-05-07T20:46:16.726Z,11.90
2019-05-07T20:48:46.899Z,11.90
2019-05-07T20:51:16.877Z,11.80
2019-05-07T20:54:12.838Z,11.70
2019-05-07T20:56:48.167Z,11.70
2019-05-07T20:59:18.288Z,11.50
2019-05-07T21:01:48.461Z,11.50
2019-05-07T21:04:18.667Z,11.20
2019-05-07T21:06:48.888Z,10.80
2019-05-07T21:09:18.866Z,10.30
2019-05-07T21:11:49.028Z,10.00
2019-05-07T21:14:19.168Z,10.10
2019-05-07T21:16:49.228Z,9.90
2019-05-07T21:19:19.479Z,9.80
2019-05-07T21:21:49.928Z,9.60
2019-05-07T21:24:22.401Z,9.70
2019-05-07T21:26:53.068Z,9.90
2019-05-07T21:29:23.239Z,9.70
2019-05-07T21:31:53.361Z,9.60
2019-05-07T21:34:23.456Z,9.50
2019-05-07T21:36:53.540Z,9.40
2019-05-07T21:39:23.572Z,9.50
2019-05-07T21:41:53.609Z,9.60
2019-05-07T21:44:25.283Z,9.30
2019-05-07T21:46:55.580Z,9.30
2019-05-07T21:49:25.585Z,9.30
2019-05-07T21:51:55.643Z,9.30
2019-05-07T21:54:47.443Z,9.10
2019-05-07T21:57:27.808Z,9.10
2019-05-07T22:00:28.873Z,9.00
2019-05-07T22:03:01.955Z,8.90
2019-05-07T22:05:32.099Z,8.80
2019-05-07T22:08:02.164Z,8.80
2019-05-07T22:10:32.971Z,8.60
2019-05-07T22:13:03.370Z,8.50
2019-05-07T22:15:33.664Z,8.50
2019-05-07T22:18:03.806Z,8.50
2019-05-07T22:20:33.996Z,8.40
2019-05-07T22:23:04.078Z,8.40
2019-05-07T22:25:34.102Z,8.40
2019-05-07T22:28:04.815Z,8.60
2019-05-07T22:30:45.643Z,8.50
2019-05-07T22:33:23.076Z,8.70
2019-05-07T22:35:53.311Z,8.50
2019-05-07T22:38:23.257Z,8.40
2019-05-07T22:40:53.364Z,8.30
2019-05-07T22:43:23.919Z,8.30
2019-05-07T22:45:53.927Z,8.30
2019-05-07T22:48:23.979Z,8.20
2019-05-07T22:50:54.060Z,8.10
2019-05-07T22:53:24.120Z,8.10
2019-05-07T22:55:54.197Z,8.20
2019-05-07T22:58:32.460Z,8.10
2019-05-07T23:01:05.742Z,8.00
2019-05-07T23:03:36.044Z,7.90
2019-05-07T23:06:09.014Z,8.00
2019-05-07T23:08:42.366Z,8.10
2019-05-07T23:11:12.559Z,8.00
2019-05-07T23:13:42.975Z,8.00
2019-05-07T23:16:13.077Z,8.00
2019-05-07T23:18:43.176Z,8.00
2019-05-07T23:21:13.289Z,7.90
2019-05-07T23:23:43.306Z,7.70
2019-05-07T23:26:14.738Z,7.80
2019-05-07T23:28:45.074Z,7.70
2019-05-07T23:31:15.020Z,7.60
2019-05-07T23:33:45.142Z,7.60
2019-05-07T23:36:15.313Z,7.50
2019-05-07T23:38:45.295Z,7.50
2019-05-07T23:41:24.588Z,7.40
2019-05-07T23:44:31.608Z,7.30
2019-05-07T23:47:02.764Z,7.50
2019-05-07T23:49:33.031Z,7.30
2019-05-07T23:52:03.171Z,7.10
2019-05-07T23:54:33.203Z,7.10
2019-05-07T23:57:08.770Z,7.30
2019-05-07T23:59:34.945Z,7.30
